Imlaystown, New Jersey
Current Conditions -  °F | °C
As of 9:58 AM on Monday 24 Nov 2014 (Local Time) from KWRI Reporting Station
Broken Clouds Broken Clouds  
Wind Chill: 68°   Ceiling: 1700
Heat Index: 68°   Visibility: 10mi
Dew Point: 63°   Wind: 20mph
Humidity: 83%   Direction: 220°SW
Pressure: 29.67"   Gusts: 28mph
Location:  40.17°N, 74.51°W
Report Text: KWRI 241458Z AUTO 22017G24KT 10SM BKN017 BKN023 BKN030 20/17 A2967 RMK AO2 PK WND 21026/42 CIG 016V022 SLP050 60001 55005
Loading
Personal Weather Stations






























Interactive Weather Map New forecast layout! Learn more

10-Day Weather Forecast

Advertisements
Track Severe Weather on mobile